BE4472 / G-ECOF 7700 Squawk Report (22nd of November, 2019)

Aircraft DH8D Reg No. G-ECOF Age N/A
Model DHC-8 Turboprop engines 2 First flight N/A
Registered 03-08-10 Rollout N/A Delivered 23-08-08
Construction No. 4216 Line No. N/A Series Q-402
ADSHEX 405C04 Airline name FlyBE Owner GOAL
Airfield based Exeter~Devon~G First tracked 2017-07-13 06:29:00

Flight history for G-ECOF

Route Flight No Date Playback
Dyce (ABZ) - Heathrow (LHR) BE2121 2019-12-12 08:48:00
Aix Les Bains (CMF) - Exeter (EXT) BE3225 2019-12-11 16:36:00
Birmingham (BHX) - Dusseldorf (DUS) BE267 2019-12-11 13:43:00
Birmingham (BHX) - Belfast City (BHD) BE404 2019-12-11 12:12:00
Schiphol (AMS) - Birmingham (BHX) BE102 2019-12-11 10:11:00
Exeter (EXT) - Schiphol (AMS) BE1535 2019-12-11 07:49:00
Guernsey (GCI) - Jersey (JER) - Birmingham (BHX) BE511 2019-12-10 19:53:00
Heathrow (LHR) - Guernsey (GCI) BE2196 2019-12-10 17:31:00
Guernsey (GCI) - Heathrow (LHR) BE2195 2019-12-10 14:50:00
Birmingham (BHX) - Jersey (JER) - Guernsey (GCI) BE508 2019-12-10 12:15:00
Belfast City (BHD) - Birmingham (BHX) BE403 2019-12-10 09:30:00
Birmingham (BHX) - Belfast City (BHD) BE400 2019-12-10 07:41:00
City (LCY) - Dusseldorf (DUS) BE1405 2019-12-09 19:36:00
???? BE1811 2019-12-09 17:31:00
Birmingham (BHX) - Dusseldorf (DUS) BE7041 2019-12-09 10:18:00
Birmingham (BHX) - Jersey (JER) - Guernsey (GCI) - Birmingham (BHX) BE500 2019-12-09 07:44:00
Belfast City (BHD) - Gatwick (LGW) BE135 2019-12-08 16:42:00
Exeter (EXT) - Belfast City (BHD) BE494 2019-12-08 15:11:00
Manchester (MAN) - Schiphol (AMS) BE1271 2019-12-08 13:20:00
Dyce (ABZ) - Belfast City (BHD) BE153 2019-12-08 11:11:00
Time Lat Lon Altitude Heading Speed Vertical Rate
2019-11-22 21:37:33 GMT 53.325699 -2.658037 6,925 204 216 -1680
2019-11-22 21:37:22 GMT 53.334957 -2.650853 7,275 199 121 -1500
2019-11-22 21:37:12 GMT 53.343147 -2.644536 7,450 204 206 -1500
2019-11-22 21:37:01 GMT 53.352722 -2.637350 7,800 204 191 -1320
2019-11-22 21:36:51 GMT 53.360931 -2.630746 8,000 205 200 -2580
2019-11-22 21:36:40 GMT 53.379848 -2.616385 8,375 205 225 -1200
2019-11-22 21:36:30 GMT 53.379848 -2.616385 8,550 204 207 -2340
2019-11-22 21:36:18 GMT 53.390091 -2.608512 8,825 204 211 -1500
2019-11-22 21:36:08 GMT 53.399738 -2.600960 9,175 201 187 -960
2019-11-22 21:35:55 GMT 53.424503 -2.581972 9,625 207 230 -3720
2019-11-22 21:35:40 GMT 53.424503 -2.581972 10,150 208 268 0
2019-11-22 21:35:29 GMT 53.436012 -2.572320 10,475 203 209 -960
2019-11-22 21:35:19 GMT 53.444931 -2.565952 10,925 205 219 -1320
2019-11-22 21:35:09 GMT 53.454086 -2.558540 11,150 199 229 -4200
2019-11-22 21:34:56 GMT 53.466572 -2.548608 11,550 211 230 -900
2019-11-22 21:34:46 GMT 53.475662 -2.541375 11,950 206 234 -1920
2019-11-22 21:34:35 GMT 53.495422 -2.526785 12,300 203 227 -2640
2019-11-22 21:34:24 GMT 53.506504 -2.517285 12,750 204 239 -1080
2019-11-22 21:34:14 GMT 53.506504 -2.517285 13,025 203 231 -1200
2019-11-22 21:33:59 GMT 53.521442 -2.505542 13,450 206 235 -1980
2019-11-22 21:33:49 GMT 53.538422 -2.495241 13,950 203 233 -3420
2019-11-22 21:33:39 GMT 53.538422 -2.495241 14,175 208 333 -2340
2019-11-22 21:33:29 GMT 53.550358 -2.485190 14,550 203 224 -2040
2019-11-22 21:33:18 GMT 53.561619 -2.477071 14,950 203 269 -1500
2019-11-22 21:33:07 GMT 53.573303 -2.468804 15,300 207 258 -2040
2019-11-22 21:32:56 GMT 53.584995 -2.459234 15,625 201 234 -2700
2019-11-22 21:32:45 GMT 53.596069 -2.451701 16,025 202 228 -1200
2019-11-22 21:32:32 GMT 53.608761 -2.442935 16,475 203 197 -1800
2019-11-22 21:32:21 GMT 53.618740 -2.435869 16,825 203 276 -1200
2019-11-22 21:32:10 GMT 53.630810 -2.425623 17,075 202 197 -1740
2019-11-22 21:32:00 GMT 53.642487 -2.418293 17,400 198 240 -2700
2019-11-22 21:31:50 GMT 53.652962 -2.410760 17,825 198 237 -2340
2019-11-22 21:31:40 GMT 53.664520 -2.402281 18,100 202 257 -840
2019-11-22 21:31:30 GMT 53.675568 -2.394723 18,375 202 233 -1680
2019-11-22 21:31:20 GMT 53.685558 -2.387786 18,650 204 299 -1500
2019-11-22 21:31:09 GMT 53.698219 -2.378795 18,975 202 260 -1380
2019-11-22 21:30:59 GMT 53.709389 -2.371120 19,225 202 260 -3060
2019-11-22 21:30:48 GMT 53.734806 -2.353562 19,700 208 270 -1860
2019-11-22 21:30:37 GMT 53.734806 -2.353562 20,000 202 265 -2160
2019-11-22 21:30:26 GMT 53.747334 -2.344360 20,275 198 280 -1140
2019-11-22 21:30:15 GMT 53.760460 -2.335203 20,625 193 259 -1260
2019-11-22 21:30:04 GMT 53.772858 -2.329941 20,800 193 250 -660
2019-11-22 21:29:54 GMT 53.786461 -2.325323 21,025 194 258 -780
2019-11-22 21:29:44 GMT 53.797863 -2.320553 21,200 194 274 -1860
2019-11-22 21:29:33 GMT 53.811802 -2.316098 21,400 190 267 -2160
2019-11-22 21:29:22 GMT 53.824444 -2.312203 21,700 190 260 -1320
2019-11-22 21:29:11 GMT 53.837975 -2.307952 21,925 192 250 -1380
2019-11-22 21:29:01 GMT 53.849117 -2.304201 22,125 193 255 -780
2019-11-22 21:28:50 GMT 53.861755 -2.298977 22,300 226 274 -540
2019-11-22 21:28:39 GMT 53.871490 -2.283372 22,500 238 245 -1260
2019-11-22 21:28:28 GMT 53.877853 -2.266148 22,700 261 268 -1140
2019-11-22 21:28:17 GMT 53.879784 -2.242434 22,850 272 305 -1200
2019-11-22 21:28:07 GMT 53.878498 -2.219948 23,075 301 260 -780
2019-11-22 21:27:56 GMT 53.875565 -2.178846 23,325 276 268 -1620
2019-11-22 21:27:46 GMT 53.875565 -2.178846 23,475 277 255 -1500
2019-11-22 21:27:36 GMT 53.874142 -2.157919 23,650 278 243 0
2019-11-22 21:27:25 GMT 53.872456 -2.142347 23,875 282 224 0
2019-11-22 21:27:13 GMT 53.863766 -2.100159 24,000 302 257 0
2019-11-22 21:27:03 GMT 53.863766 -2.100159 24,000 307 226 0
2019-11-22 21:26:53 GMT 53.853371 -2.086708 24,000 327 192 0
2019-11-22 21:26:42 GMT 53.830299 -2.064189 24,000 332 282 0
2019-11-22 21:26:30 GMT 53.830299 -2.064189 24,000 333 294 0
2019-11-22 21:26:20 GMT 53.818153 -2.053815 24,000 335 260 0
2019-11-22 21:26:10 GMT 53.807186 -2.045396 24,000 336 279 0
2019-11-22 21:25:59 GMT 53.794140 -2.035697 24,000 333 274 0
2019-11-22 21:25:49 GMT 53.782730 -2.026149 24,000 331 283 0
2019-11-22 21:25:36 GMT 53.768124 -2.015396 24,000 333 286 0
2019-11-22 21:25:24 GMT 53.753502 -2.003066 24,000 335 276 0
2019-11-22 21:25:13 GMT 53.740265 -1.992937 24,000 335 281 0
2019-11-22 21:25:01 GMT 53.720909 -1.978185 24,000 336 298 0
2019-11-22 21:24:47 GMT 53.704895 -1.964776 24,000 336 298 0
2019-11-22 21:23:43 GMT 53.633720 -1.911103 24,000 336 300 0
2019-11-22 21:23:14 GMT 53.596550 -1.884081 24,000 334 300 0
2019-11-22 21:23:03 GMT 53.583961 -1.871959 24,000 335 278 0
2019-11-22 21:22:53 GMT 53.570938 -1.862206 24,000 335 307 60
2019-11-22 21:22:43 GMT 53.558949 -1.853532 24,000 335 291 0
2019-11-22 21:22:33 GMT 53.547024 -1.844357 24,000 334 306 0
2019-11-22 21:22:20 GMT 53.530663 -1.831889 23,975 333 309 0
2019-11-22 21:22:02 GMT 53.506886 -1.811832 24,000 333 317 0
2019-11-22 21:21:48 GMT 53.489185 -1.797616 24,000 332 329 0
2019-11-22 21:21:33 GMT 53.468876 -1.780029 24,000 336 315 0
2019-11-22 21:21:22 GMT 53.452950 -1.771624 24,000 331 314 0
2019-11-22 21:21:11 GMT 53.422535 -1.750232 24,000 335 314 0
2019-11-22 21:21:01 GMT 53.422535 -1.750232 24,000 334 323 0
2019-11-22 21:20:51 GMT 53.410561 -1.737572 24,000 335 364 0
2019-11-22 21:20:39 GMT 53.392094 -1.723616 24,000 339 367 0
2019-11-22 21:20:28 GMT 53.357918 -1.701702 24,000 332 357 -60
2019-11-22 21:20:17 GMT 53.357918 -1.701702 23,975 332 357 -60
2019-11-22 21:20:00 GMT 53.332909 -1.680098 23,975 334 365 0
2019-11-22 21:19:50 GMT 53.317066 -1.667653 24,000 334 397 0
2019-11-22 21:19:37 GMT 53.296814 -1.652238 24,000 335 385 0
2019-11-22 21:19:27 GMT 53.279896 -1.639269 24,000 333 377 0
2019-11-22 21:19:15 GMT 53.261086 -1.623806 24,000 333 395 0
2019-11-22 21:19:02 GMT 53.226097 -1.590510 24,000 332 381 0
2019-11-22 21:18:52 GMT 53.226097 -1.590510 24,000 328 376 0
2019-11-22 21:18:42 GMT 53.191608 -1.555981 24,000 329 355 0
2019-11-22 21:18:29 GMT 53.191608 -1.555981 24,000 329 369 0
2019-11-22 21:18:19 GMT 53.175835 -1.540817 24,000 329 374 0
2019-11-22 21:18:08 GMT 53.159424 -1.524663 24,000 333 369 0
2019-11-22 21:17:56 GMT 53.142025 -1.510573 24,000 327 373 0
2019-11-22 21:17:46 GMT 53.110683 -1.478044 24,000 329 354 0
2019-11-22 21:17:35 GMT 53.110683 -1.478044 24,000 330 377 0
2019-11-22 21:17:25 GMT 53.095436 -1.462525 24,000 328 370 0
2019-11-22 21:17:12 GMT 53.076355 -1.443305 24,000 332 358 0
2019-11-22 21:17:02 GMT 53.062244 -1.431153 24,000 330 387 0
2019-11-22 21:16:51 GMT 53.045094 -1.414940 24,000 330 384 0
2019-11-22 21:16:39 GMT 53.026432 -1.397613 23,975 330 366 0
2019-11-22 21:16:25 GMT 53.006676 -1.376970 24,000 333 390 0
2019-11-22 21:16:13 GMT 52.970417 -1.344968 24,000 331 390 0
2019-11-22 21:16:02 GMT 52.970417 -1.344968 24,000 329 363 0
2019-11-22 21:15:51 GMT 52.937553 -1.311438 24,000 325 384 0
2019-11-22 21:15:39 GMT 52.937553 -1.311438 24,000 331 374 0
2019-11-22 21:15:25 GMT 52.900364 -1.275373 24,000 325 375 0
2019-11-22 21:15:14 GMT 52.900364 -1.275373 24,000 329 378 0
2019-11-22 21:15:04 GMT 52.885353 -1.260498 24,000 328 356 0
2019-11-22 21:14:53 GMT 52.869923 -1.244735 24,000 329 368 0
2019-11-22 21:14:42 GMT 52.853764 -1.229329 24,000 323 393 0
2019-11-22 21:14:32 GMT 52.838268 -1.213963 24,000 329 348 0
2019-11-22 21:14:22 GMT 52.811695 -1.185277 24,000 326 392 0
2019-11-22 21:14:12 GMT 52.811695 -1.185277 24,000 333 431 0
2019-11-22 21:14:02 GMT 52.795177 -1.171260 24,000 327 377 60
2019-11-22 21:13:51 GMT 52.777988 -1.151999 24,025 332 354 120
2019-11-22 21:13:40 GMT 52.762524 -1.138702 24,000 337 372 0
2019-11-22 21:13:30 GMT 52.745487 -1.126814 24,000 334 343 -60
2019-11-22 21:13:19 GMT 52.729031 -1.117561 24,000 346 383 0
2019-11-22 21:13:09 GMT 52.711548 -1.109312 24,000 346 363 0
2019-11-22 21:12:55 GMT 52.688610 -1.100546 24,000 348 381 0
2019-11-22 21:12:40 GMT 52.662716 -1.091732 24,000 345 379 0
2019-11-22 21:12:30 GMT 52.644829 -1.083000 24,000 346 375 0
2019-11-22 21:12:20 GMT 52.628494 -1.076919 24,000 345 377 0
2019-11-22 21:12:10 GMT 52.611458 -1.072548 24,000 343 369 0
2019-11-22 21:11:56 GMT 52.588432 -1.061616 24,000 346 375 0
2019-11-22 21:11:43 GMT 52.566177 -1.053595 24,000 346 377 0
2019-11-22 21:11:32 GMT 52.546291 -1.044689 24,000 346 365 0
2019-11-22 21:11:22 GMT 52.500229 -1.026934 24,000 346 385 0
2019-11-22 21:11:04 GMT 52.500229 -1.026934 24,000 346 366 0
2019-11-22 21:10:52 GMT 52.479961 -1.018783 24,000 346 380 0
2019-11-22 21:10:42 GMT 52.463398 -1.012844 24,000 347 377 0
2019-11-22 21:10:30 GMT 52.441933 -1.004067 24,000 346 370 0
2019-11-22 21:10:20 GMT 52.426178 -0.998093 24,000 345 368 0
2019-11-22 21:10:10 GMT 52.410244 -0.990910 24,000 346 375 0
2019-11-22 21:10:00 GMT 52.375805 -0.977463 24,000 346 360 0
2019-11-22 21:09:50 GMT 52.375805 -0.977463 24,000 347 368 0
2019-11-22 21:09:36 GMT 52.335938 -0.961831 24,000 343 365 0
2019-11-22 21:09:26 GMT 52.335938 -0.961831 24,000 346 371 0
2019-11-22 21:09:14 GMT 52.315826 -0.954182 24,000 346 367 0
2019-11-22 21:09:00 GMT 52.292812 -0.945669 24,000 346 367 0
2019-11-22 21:08:47 GMT 52.271187 -0.936701 24,000 346 359 0
2019-11-22 21:08:32 GMT 52.246574 -0.927124 24,000 347 366 -60
2019-11-22 21:08:21 GMT 52.207993 -0.912382 24,000 346 347 -60
2019-11-22 21:08:09 GMT 52.207993 -0.912382 24,000 346 358 0
2019-11-22 21:07:56 GMT 52.187061 -0.904581 24,025 346 367 60
2019-11-22 21:07:46 GMT 52.170631 -0.898188 24,025 346 362 0
2019-11-22 21:07:32 GMT 52.147991 -0.889403 24,025 346 348 0
2019-11-22 21:07:11 GMT 52.114780 -0.876331 24,025 347 337 0
2019-11-22 21:06:58 GMT 52.094658 -0.868496 24,025 353 333 120
2019-11-22 21:06:45 GMT 52.075325 -0.863262 24,000 7 357 60
2019-11-22 21:06:32 GMT 52.054012 -0.867599 24,000 9 323 120
2019-11-22 21:06:21 GMT 52.037758 -0.871966 23,975 8 312 120
2019-11-22 21:06:09 GMT 52.020592 -0.876248 23,950 2 376 1560
2019-11-22 21:05:59 GMT 52.003204 -0.877288 23,900 15 296 1260
2019-11-22 21:05:49 GMT 51.991348 -0.883924 23,700 9 316 300
2019-11-22 21:05:36 GMT 51.972538 -0.888864 23,550 9 342 2100
2019-11-22 21:05:26 GMT 51.959717 -0.893118 23,325 9 296 60
2019-11-22 21:05:14 GMT 51.941437 -0.897883 23,075 10 331 1020
2019-11-22 21:05:04 GMT 51.926357 -0.902271 22,825 8 299 900
2019-11-22 21:04:53 GMT 51.911301 -0.905991 22,575 6 357 2280
2019-11-22 21:04:42 GMT 51.893196 -0.909177 22,200 14 279 2460
2019-11-22 21:04:31 GMT 51.879101 -0.914532 21,950 10 311 2520
2019-11-22 21:04:21 GMT 51.864277 -0.920134 21,600 7 336 2160
2019-11-22 21:04:09 GMT 51.827671 -0.929856 21,325 351 323 720
2019-11-22 21:03:56 GMT 51.810848 -0.934891 21,000 29 364 1500
2019-11-22 21:03:45 GMT 51.810848 -0.934891 20,900 9 337 1560
2019-11-22 21:03:33 GMT 51.778278 -0.944074 20,600 6 332 660
2019-11-22 21:03:23 GMT 51.778278 -0.944074 20,450 7 320 1200
2019-11-22 21:03:11 GMT 51.760597 -0.947679 20,225 11 320 600
2019-11-22 21:03:01 GMT 51.732288 -0.955922 20,050 8 297 1380
2019-11-22 21:02:51 GMT 51.716427 -0.959609 19,825 8 282 1560
2019-11-22 21:02:40 GMT 51.716427 -0.959609 19,650 7 315 3180
2019-11-22 21:02:29 GMT 51.700512 -0.963027 19,325 16 340 0
2019-11-22 21:02:16 GMT 51.684525 -0.971159 19,100 22 310 480
2019-11-22 21:02:05 GMT 51.669193 -0.979415 18,775 20 339 2820
2019-11-22 21:01:55 GMT 51.655094 -0.988786 18,500 18 303 1740
2019-11-22 21:01:45 GMT 51.642796 -0.995677 18,300 17 300 2880
2019-11-22 21:01:34 GMT 51.612473 -1.014484 17,925 21 299 2040
2019-11-22 21:01:21 GMT 51.612473 -1.014484 17,625 23 307 2220
2019-11-22 21:01:11 GMT 51.599468 -1.022377 17,375 21 287 1860
2019-11-22 21:01:01 GMT 51.585915 -1.030750 16,975 16 324 1200
2019-11-22 21:00:51 GMT 51.571518 -1.037616 16,650 29 272 1080
2019-11-22 21:00:38 GMT 51.557262 -1.050671 16,150 31 283 1020
2019-11-22 21:00:27 GMT 51.544941 -1.062755 15,850 36 309 1860
2019-11-22 21:00:16 GMT 51.532261 -1.077819 15,475 40 271 3180
2019-11-22 21:00:06 GMT 51.508701 -1.105212 15,175 36 302 2160
2019-11-22 20:59:55 GMT 51.508701 -1.105212 14,475 27 338 720
2019-11-22 20:59:45 GMT 51.494778 -1.116719 13,675 13 311 780
2019-11-22 20:59:34 GMT 51.477974 -1.122433 13,175 5 314 1020
2019-11-22 20:59:23 GMT 51.462063 -1.125028 13,450 2 327 420
2019-11-22 20:59:12 GMT 51.446186 -1.127065 13,250 5 308 1260
2019-11-22 20:59:02 GMT 51.431751 -1.129313 13,125 4 307 1500
2019-11-22 20:58:52 GMT 51.417576 -1.131191 12,800 3 328 1560
2019-11-22 20:58:41 GMT 51.400883 -1.132989 12,375 7 312 1680
2019-11-22 20:58:31 GMT 51.386524 -1.135962 12,075 1 304 2520
2019-11-22 20:58:21 GMT 51.372417 -1.136361 11,850 4 284 720
2019-11-22 20:58:11 GMT 51.358803 -1.138378 11,575 4 289 1380
2019-11-22 20:58:01 GMT 51.345432 -1.140012 11,350 3 292 1860
2019-11-22 20:57:51 GMT 51.331932 -1.141460 11,075 5 290 1080
2019-11-22 20:57:41 GMT 51.318542 -1.143374 10,700 4 286 2580
2019-11-22 20:57:31 GMT 51.305340 -1.144866 10,450 2 278 1740
2019-11-22 20:57:21 GMT 51.291664 -1.146364 10,175 6 242 1380
2019-11-22 20:57:11 GMT 51.280502 -1.148485 9,825 0 287 120
2019-11-22 20:57:01 GMT 51.267559 -1.148555 9,575 4 294 1020
2019-11-22 20:56:50 GMT 51.252731 -1.150148 9,400 5 276 420
2019-11-22 20:56:40 GMT 51.240013 -1.152002 9,350 6 251 1140
2019-11-22 20:56:29 GMT 51.227268 -1.154172 9,200 3 287 780
2019-11-22 20:56:19 GMT 51.214008 -1.155573 8,975 3 257 1200
2019-11-22 20:56:07 GMT 51.198753 -1.156780 8,750 5 284 1320
2019-11-22 20:55:55 GMT 51.183037 -1.159198 8,425 359 244 2220
2019-11-22 20:55:45 GMT 51.171734 -1.159066 8,100 5 281 1080
2019-11-22 20:55:33 GMT 51.156158 -1.161510 7,625 5 268 420
2019-11-22 20:55:19 GMT 51.138439 -1.163695 7,150 10 300 300
2019-11-22 20:55:09 GMT 51.126461 -1.164482 7,000 27 340 480
2019-11-22 20:54:59 GMT 51.114960 -1.168325 6,950 357 287 1260

Making use of Plane Finder data

You are free to use the raw flight data, aircraft information and images provided in this report for your own purposes provided the data is correctly attributed to Plane Finder. We ask that you please credit Plane Finder and link to planefinder.net in close proximity to the content.

Optionally one of the following logos (no smaller then 150x24px) can be used and must link to planefinder.net

Embedding the Plane Finder map

You are welcome to embed the Plane Finder playback map on your website to offer visitors a more interactive experience. We suggest using the following HTML code:

<iframe src="//planefinder.net/data/report/BE4472-G-ECOF-7700-squawk-2019-11-22/map" width="800" height="600" seamless="seamless"></iframe>

Where our data comes from

Plane Finder has a global network of data feeds and antenna radars that receive data broadcast directly from aircraft. The primary technologies used are ADS-B and MLAT. We also show feeds from the FAA and a FLARM glider feed.

Click here to find out more about the Plane Finder network.

How we collect our data